Time;durP1;ratioP1;P1;durP2;ratioP2;P2;SDS_P1;SDS_P2;PMS_P1;PMS_P2;Temp;Humidity;BMP_temperature;BMP_pressure;BME280_temperature;BME280_humidity;BME280_pressure;Samples;Min_cycle;Max_cycle;Signal;HPM_P1;HPM_P2
2024/01/28 00:00:53;;;;;;;21.27;8.23;;;2.60;83.30;;;;;;9175608;19;20022;-72
2024/01/28 00:04:01;;;;;;;26.23;8.88;;;2.60;83.20;;;;;;9176053;19;20010;-72
2024/01/28 00:07:10;;;;;;;23.77;7.65;;;2.60;83.50;;;;;;9172704;19;20488;-72
2024/01/28 00:10:17;;;;;;;19.52;7.80;;;2.50;83.10;;;;;;9174413;19;20017;-72
2024/01/28 00:13:25;;;;;;;20.60;7.18;;;2.50;83.10;;;;;;9177383;19;21441;-72
2024/01/28 00:16:33;;;;;;;21.35;7.68;;;2.60;83.40;;;;;;9174254;19;20014;-73
2024/01/28 00:19:38;;;;;;;23.95;8.15;;;2.50;83.60;;;;;;9174383;19;20018;-72
2024/01/28 00:22:49;;;;;;;28.73;7.80;;;2.50;83.20;;;;;;9163341;19;20018;-72
2024/01/28 00:25:54;;;;;;;20.83;7.45;;;2.40;83.10;;;;;;9171374;19;20022;-72
2024/01/28 00:29:02;;;;;;;30.25;7.22;;;2.40;83.10;;;;;;9174516;19;20062;-73
2024/01/28 00:32:08;;;;;;;17.60;6.95;;;2.40;83.10;;;;;;9167673;19;20046;-72
2024/01/28 00:35:16;;;;;;;26.17;8.27;;;2.40;83.00;;;;;;9176920;19;20014;-72
2024/01/28 00:38:24;;;;;;;16.70;7.35;;;2.40;83.20;;;;;;9169995;19;20031;-73
2024/01/28 00:41:31;;;;;;;17.83;7.47;;;2.40;83.20;;;;;;9173067;19;20017;-72
2024/01/28 00:44:40;;;;;;;19.52;6.80;;;2.40;83.30;;;;;;9173837;19;20045;-73
2024/01/28 00:47:48;;;;;;;15.32;6.63;;;2.30;83.30;;;;;;9175461;19;20114;-72
2024/01/28 00:50:54;;;;;;;22.17;7.68;;;2.30;83.20;;;;;;9170813;19;20032;-72
2024/01/28 00:54:04;;;;;;;19.27;7.18;;;2.30;83.50;;;;;;9173858;19;20014;-73
2024/01/28 00:57:10;;;;;;;23.20;7.13;;;2.30;83.20;;;;;;9174970;19;20018;-72
2024/01/28 01:00:19;;;;;;;28.80;8.18;;;2.30;83.60;;;;;;9175071;19;20022;-72
2024/01/28 01:03:24;;;;;;;33.70;8.68;;;2.30;83.20;;;;;;9175644;19;20571;-72
2024/01/28 01:06:32;;;;;;;27.15;8.93;;;2.30;83.20;;;;;;9171384;19;20527;-72
2024/01/28 01:09:45;;;;;;;23.33;8.35;;;2.30;83.30;;;;;;9173443;19;20026;-72
2024/01/28 01:12:53;;;;;;;22.45;7.53;;;2.20;83.40;;;;;;9171130;19;20389;-72
2024/01/28 01:15:59;;;;;;;23.15;7.80;;;2.20;83.30;;;;;;9168876;19;20018;-72
2024/01/28 01:19:07;;;;;;;29.63;7.38;;;2.20;83.40;;;;;;9172046;19;20038;-75
2024/01/28 01:22:12;;;;;;;19.58;7.28;;;2.20;83.40;;;;;;9163421;19;20029;-72
2024/01/28 01:25:22;;;;;;;26.85;6.65;;;2.20;83.40;;;;;;9170895;19;20017;-72
2024/01/28 01:28:31;;;;;;;26.42;8.15;;;2.20;83.40;;;;;;9173110;19;20025;-72
2024/01/28 01:31:39;;;;;;;16.63;8.30;;;2.20;83.40;;;;;;9169853;19;20022;-72
2024/01/28 01:34:45;;;;;;;30.27;8.55;;;2.20;83.70;;;;;;9172146;19;20508;-72
2024/01/28 01:37:54;;;;;;;24.08;8.60;;;2.20;83.70;;;;;;9171891;19;20011;-74
2024/01/28 01:41:02;;;;;;;30.77;8.88;;;2.20;83.50;;;;;;9170801;19;20368;-74
2024/01/28 01:44:10;;;;;;;22.35;8.73;;;2.20;83.50;;;;;;9173605;19;20015;-72
2024/01/28 01:47:20;;;;;;;23.85;8.77;;;2.20;83.40;;;;;;9169713;19;20022;-72
2024/01/28 01:50:28;;;;;;;29.13;8.20;;;2.20;83.40;;;;;;9173896;19;20003;-72
2024/01/28 01:53:34;;;;;;;24.75;7.88;;;2.20;84.30;;;;;;9173673;19;20018;-72
2024/01/28 01:56:44;;;;;;;21.25;7.45;;;2.20;83.50;;;;;;9172063;19;20022;-72
2024/01/28 01:59:51;;;;;;;29.45;7.88;;;2.20;83.50;;;;;;9170346;19;20077;-72
2024/01/28 02:02:59;;;;;;;28.33;7.80;;;2.20;83.50;;;;;;9172362;19;20018;-72
2024/01/28 02:06:06;;;;;;;16.88;6.20;;;2.20;83.50;;;;;;9169879;19;20028;-72
2024/01/28 02:09:13;;;;;;;16.38;7.15;;;2.20;83.50;;;;;;9171045;19;20015;-72
2024/01/28 02:12:22;;;;;;;21.55;7.00;;;2.20;83.60;;;;;;9169634;19;20018;-72
2024/01/28 02:15:30;;;;;;;17.80;6.53;;;2.30;83.70;;;;;;9172692;19;20018;-72
2024/01/28 02:18:36;;;;;;;20.05;6.03;;;2.30;83.60;;;;;;9172072;19;20019;-73
2024/01/28 02:21:43;;;;;;;27.40;6.53;;;2.30;83.60;;;;;;9173638;19;20021;-73
2024/01/28 02:24:53;;;;;;;16.70;6.10;;;2.20;83.70;;;;;;9170147;19;20027;-73
2024/01/28 02:28:00;;;;;;;16.65;6.07;;;2.20;83.60;;;;;;9169044;19;20020;-72
2024/01/28 02:31:17;;;;;;;15.30;6.25;;;2.30;83.70;;;;;;9168651;19;20026;-72
2024/01/28 02:34:23;;;;;;;22.83;6.47;;;2.30;83.70;;;;;;9172819;19;20127;-72
2024/01/28 02:37:30;;;;;;;19.60;6.68;;;2.30;83.70;;;;;;9170935;19;20489;-73
2024/01/28 02:40:38;;;;;;;12.73;6.25;;;2.30;83.80;;;;;;9172037;19;20015;-73
2024/01/28 02:43:46;;;;;;;20.58;6.15;;;2.20;83.80;;;;;;9169563;19;20112;-73
2024/01/28 02:46:53;;;;;;;18.15;6.43;;;2.20;83.80;;;;;;9173963;19;20094;-73
2024/01/28 02:50:01;;;;;;;16.25;6.88;;;2.30;83.80;;;;;;9181216;19;20010;-73
2024/01/28 02:53:07;;;;;;;17.23;6.15;;;2.30;83.80;;;;;;9180758;19;20835;-73
2024/01/28 02:56:17;;;;;;;16.02;6.82;;;2.30;83.90;;;;;;9179875;19;20017;-73
2024/01/28 02:59:23;;;;;;;16.70;5.85;;;2.30;83.80;;;;;;9176058;19;20030;-73
2024/01/28 03:02:31;;;;;;;13.77;5.80;;;2.20;83.70;;;;;;9179560;19;20018;-73
2024/01/28 03:05:36;;;;;;;19.58;5.85;;;2.30;83.80;;;;;;9179582;19;20025;-74
2024/01/28 03:08:44;;;;;;;13.68;5.47;;;2.30;83.70;;;;;;9174669;19;20014;-73
2024/01/28 03:11:52;;;;;;;16.92;6.22;;;2.30;83.80;;;;;;9177920;19;20015;-73
2024/01/28 03:15:00;;;;;;;19.05;5.95;;;2.30;83.80;;;;;;9179940;19;20408;-73
2024/01/28 03:18:06;;;;;;;22.92;5.88;;;2.20;83.70;;;;;;9178338;19;20086;-73
2024/01/28 03:21:14;;;;;;;18.42;6.05;;;2.30;83.80;;;;;;9179549;19;20014;-73
2024/01/28 03:24:19;;;;;;;21.25;6.35;;;2.30;83.80;;;;;;9180127;19;20404;-73
2024/01/28 03:27:29;;;;;;;22.25;5.72;;;2.20;83.80;;;;;;9177574;19;20052;-72
2024/01/28 03:30:35;;;;;;;17.40;5.72;;;2.30;83.80;;;;;;9176554;19;20097;-73
2024/01/28 03:33:43;;;;;;;20.08;5.78;;;2.30;83.70;;;;;;9176660;19;20017;-72
2024/01/28 03:36:49;;;;;;;21.02;5.72;;;2.20;83.80;;;;;;9179413;19;20576;-73
2024/01/28 03:39:56;;;;;;;22.77;5.55;;;2.20;83.60;;;;;;9174223;19;20015;-72
2024/01/28 03:43:05;;;;;;;17.75;5.70;;;2.20;83.80;;;;;;9178206;19;20033;-73
2024/01/28 03:46:12;;;;;;;17.77;5.90;;;2.20;83.70;;;;;;9178693;19;20019;-72
2024/01/28 03:49:18;;;;;;;13.15;5.25;;;2.20;83.80;;;;;;9177562;19;20018;-73
2024/01/28 03:52:25;;;;;;;16.65;5.07;;;2.20;84.40;;;;;;9176843;19;20019;-73
2024/01/28 03:55:31;;;;;;;17.27;4.95;;;2.20;83.90;;;;;;9178793;19;20018;-73
2024/01/28 03:58:42;;;;;;;19.55;4.68;;;2.20;84.70;;;;;;9176808;19;20018;-73
2024/01/28 04:01:47;;;;;;;23.95;6.18;;;2.20;83.80;;;;;;9173660;19;20022;-73
2024/01/28 04:04:55;;;;;;;16.92;5.90;;;2.10;83.70;;;;;;9174579;19;20018;-73
2024/01/28 04:08:01;;;;;;;18.73;5.07;;;2.20;83.80;;;;;;9173025;19;20480;-73
2024/01/28 04:11:09;;;;;;;16.00;5.07;;;2.10;83.90;;;;;;9174030;19;20605;-73
2024/01/28 04:14:17;;;;;;;17.92;5.13;;;2.10;83.90;;;;;;9174673;19;20033;-72
2024/01/28 04:17:29;;;;;;;18.50;4.82;;;2.10;83.80;;;;;;9176318;19;20011;-74
2024/01/28 04:20:34;;;;;;;13.23;5.05;;;2.10;83.80;;;;;;9177821;19;20023;-71
2024/01/28 04:23:42;;;;;;;20.55;5.20;;;2.10;83.80;;;;;;9176592;19;20098;-72
2024/01/28 04:26:47;;;;;;;9.35;4.63;;;2.00;83.80;;;;;;9175765;19;20105;-73
2024/01/28 04:30:01;;;;;;;10.02;5.05;;;2.10;83.90;;;;;;9178312;19;20371;-73
2024/01/28 04:33:08;;;;;;;17.83;5.40;;;2.00;84.10;;;;;;9173950;19;20023;-73
2024/01/28 04:36:16;;;;;;;17.38;5.32;;;2.00;84.00;;;;;;9175914;19;20018;-73
2024/01/28 04:39:21;;;;;;;13.35;4.43;;;1.90;84.10;;;;;;9174853;19;20025;-73
2024/01/28 04:42:29;;;;;;;12.65;4.65;;;2.00;84.10;;;;;;9175143;19;20018;-73
2024/01/28 04:45:38;;;;;;;19.70;5.45;;;1.90;83.80;;;;;;9176444;19;20430;-73
2024/01/28 04:48:45;;;;;;;20.38;4.82;;;1.90;84.00;;;;;;9175314;19;20015;-73
2024/01/28 04:51:51;;;;;;;11.32;4.75;;;1.90;83.90;;;;;;9177684;19;20010;-73
2024/01/28 04:54:59;;;;;;;14.90;4.82;;;2.00;84.30;;;;;;9177730;19;20021;-71
2024/01/28 04:58:05;;;;;;;13.70;4.60;;;1.90;83.90;;;;;;9175478;19;20056;-72
2024/01/28 05:01:15;;;;;;;17.48;5.68;;;1.80;84.10;;;;;;9171401;19;20010;-72
2024/01/28 05:04:21;;;;;;;10.30;5.07;;;1.80;84.30;;;;;;9176422;19;20822;-73
2024/01/28 05:07:29;;;;;;;17.30;5.72;;;1.80;84.10;;;;;;9171129;19;20349;-72
2024/01/28 05:10:34;;;;;;;22.83;5.40;;;1.80;84.10;;;;;;9171982;19;20010;-72
2024/01/28 05:13:42;;;;;;;8.15;4.88;;;1.70;84.20;;;;;;9174756;19;20017;-73
2024/01/28 05:16:50;;;;;;;13.68;5.05;;;1.70;84.00;;;;;;9172916;19;20017;-72
2024/01/28 05:19:58;;;;;;;17.85;5.30;;;1.70;84.00;;;;;;9171146;19;20034;-72
2024/01/28 05:23:03;;;;;;;17.88;6.43;;;1.70;83.90;;;;;;9176973;19;20468;-71
2024/01/28 05:26:11;;;;;;;14.35;5.03;;;1.70;83.90;;;;;;9175630;19;20018;-72
2024/01/28 05:29:17;;;;;;;10.88;5.20;;;1.70;83.90;;;;;;9172942;19;20022;-71
2024/01/28 05:32:28;;;;;;;12.15;4.68;;;1.60;84.00;;;;;;9168261;19;20795;-72
2024/01/28 05:35:34;;;;;;;13.18;4.97;;;1.50;83.90;;;;;;9175804;19;20025;-72
2024/01/28 05:38:41;;;;;;;20.27;5.65;;;1.60;83.80;;;;;;9173959;19;20373;-72
2024/01/28 05:41:47;;;;;;;15.27;5.55;;;1.50;83.90;;;;;;9171286;19;20356;-71
2024/01/28 05:44:57;;;;;;;20.92;5.22;;;1.50;83.90;;;;;;9174568;19;20007;-71
2024/01/28 05:48:05;;;;;;;15.18;5.10;;;1.50;83.80;;;;;;9174259;19;20022;-71
2024/01/28 05:51:13;;;;;;;11.60;5.03;;;1.50;83.80;;;;;;9173974;19;20007;-71
2024/01/28 05:54:19;;;;;;;18.52;5.65;;;1.40;83.80;;;;;;9173851;19;20078;-71
2024/01/28 05:57:27;;;;;;;14.90;5.45;;;1.40;83.80;;;;;;9174810;19;20372;-73
2024/01/28 06:00:32;;;;;;;21.98;5.88;;;1.40;84.00;;;;;;9169789;19;20044;-73
2024/01/28 06:03:43;;;;;;;13.95;4.55;;;1.40;83.80;;;;;;9172582;19;20115;-72
2024/01/28 06:06:49;;;;;;;8.35;4.50;;;1.40;83.90;;;;;;9174500;19;20486;-73
2024/01/28 06:09:57;;;;;;;11.13;5.07;;;1.30;83.80;;;;;;9172647;19;20023;-72
2024/01/28 06:13:02;;;;;;;12.70;4.57;;;1.30;83.80;;;;;;9172610;19;20014;-73
2024/01/28 06:16:10;;;;;;;16.75;5.65;;;1.30;83.80;;;;;;9173792;19;20007;-72
2024/01/28 06:19:19;;;;;;;15.07;5.45;;;1.30;83.80;;;;;;9172711;19;20010;-72
2024/01/28 06:22:26;;;;;;;20.42;5.28;;;1.30;84.40;;;;;;9176679;19;20006;-72
2024/01/28 06:25:32;;;;;;;22.95;5.72;;;1.20;83.90;;;;;;9184484;19;20029;-72
2024/01/28 06:28:40;;;;;;;19.63;5.05;;;1.30;83.90;;;;;;9181883;19;20021;-72
2024/01/28 06:31:46;;;;;;;22.80;6.13;;;1.20;83.90;;;;;;9175742;19;20018;-73
2024/01/28 06:34:56;;;;;;;17.30;5.43;;;1.20;83.70;;;;;;9180668;19;20814;-73
2024/01/28 06:38:02;;;;;;;15.95;5.68;;;1.20;83.70;;;;;;9182936;19;20014;-73
2024/01/28 06:41:09;;;;;;;17.23;6.15;;;1.20;83.90;;;;;;9177667;19;20018;-73
2024/01/28 06:44:15;;;;;;;12.80;5.13;;;1.20;83.80;;;;;;9180495;19;20018;-73
2024/01/28 06:47:22;;;;;;;15.85;5.55;;;1.20;83.90;;;;;;9181761;19;20025;-73
2024/01/28 06:50:31;;;;;;;11.75;5.03;;;1.20;83.90;;;;;;9178751;19;20014;-73
2024/01/28 06:53:39;;;;;;;14.82;5.35;;;1.20;83.90;;;;;;9179481;19;20014;-73
2024/01/28 06:56:44;;;;;;;14.80;5.20;;;1.20;83.90;;;;;;9181279;19;20038;-73
2024/01/28 06:59:52;;;;;;;11.82;4.95;;;1.10;83.80;;;;;;9178758;19;20018;-73
2024/01/28 07:02:58;;;;;;;17.60;5.50;;;1.10;84.40;;;;;;9178440;19;20380;-71
2024/01/28 07:06:09;;;;;;;16.73;5.07;;;1.20;84.00;;;;;;9180351;19;20014;-73
2024/01/28 07:09:17;;;;;;;15.70;5.00;;;1.10;84.00;;;;;;9178003;19;20813;-72
2024/01/28 07:12:25;;;;;;;21.05;4.80;;;1.10;83.90;;;;;;9180654;19;20018;-72
2024/01/28 07:15:30;;;;;;;11.95;5.25;;;1.10;84.00;;;;;;9177475;19;20014;-72
2024/01/28 07:18:39;;;;;;;13.88;5.30;;;1.10;84.00;;;;;;9179870;19;20068;-73
2024/01/28 07:21:47;;;;;;;14.13;5.28;;;1.10;84.00;;;;;;9178166;19;20015;-73
2024/01/28 07:24:55;;;;;;;11.88;5.20;;;1.10;84.00;;;;;;9179894;19;20018;-71
2024/01/28 07:28:01;;;;;;;11.93;4.40;;;1.10;83.90;;;;;;9180868;19;20384;-73
2024/01/28 07:31:09;;;;;;;17.50;5.22;;;1.10;84.00;;;;;;9177381;19;20006;-73
2024/01/28 07:34:18;;;;;;;14.32;5.38;;;1.00;83.80;;;;;;9180510;19;20377;-72
2024/01/28 07:37:48;;;;;;;14.40;5.55;;;1.00;83.90;;;;;;9179905;19;20022;-73
2024/01/28 07:40:54;;;;;;;18.05;4.88;;;1.00;83.90;;;;;;9176700;19;20114;-73
2024/01/28 07:44:01;;;;;;;10.80;4.80;;;1.00;84.10;;;;;;9177455;19;20010;-73
2024/01/28 07:47:07;;;;;;;12.80;5.35;;;1.10;84.00;;;;;;9177743;19;20034;-73
2024/01/28 07:50:15;;;;;;;11.18;4.72;;;1.00;84.00;;;;;;9176082;19;20017;-72
2024/01/28 07:53:24;;;;;;;23.48;5.57;;;1.00;84.00;;;;;;9178016;19;20022;-73
2024/01/28 07:56:31;;;;;;;13.88;5.50;;;1.00;84.00;;;;;;9177765;19;20019;-73
2024/01/28 07:59:37;;;;;;;17.73;5.45;;;1.00;84.00;;;;;;9177401;19;20030;-73
2024/01/28 08:02:44;;;;;;;14.73;5.00;;;1.00;84.00;;;;;;9173614;19;20014;-73
2024/01/28 08:05:50;;;;;;;8.77;4.47;;;1.00;84.00;;;;;;9178022;19;20457;-73
2024/01/28 08:09:00;;;;;;;16.15;5.07;;;1.10;84.10;;;;;;9169762;19;20476;-73
2024/01/28 08:12:07;;;;;;;15.88;5.00;;;1.00;84.00;;;;;;9178753;19;20026;-74
2024/01/28 08:15:15;;;;;;;12.68;5.05;;;1.10;84.10;;;;;;9177459;19;20026;-73
2024/01/28 08:18:21;;;;;;;12.43;4.45;;;1.10;84.10;;;;;;9173119;19;20094;-73
2024/01/28 08:21:29;;;;;;;14.48;4.75;;;1.10;84.10;;;;;;9171137;19;20027;-72
2024/01/28 08:24:37;;;;;;;16.90;4.70;;;1.10;84.20;;;;;;9168544;19;20018;-73
2024/01/28 08:27:46;;;;;;;15.85;4.95;;;1.10;84.10;;;;;;9172553;19;20580;-74
2024/01/28 08:30:51;;;;;;;14.82;4.28;;;1.20;84.10;;;;;;9171152;19;20380;-73
2024/01/28 08:34:00;;;;;;;12.63;4.72;;;1.10;84.10;;;;;;9176149;19;20011;-73
2024/01/28 08:37:06;;;;;;;12.20;4.30;;;1.20;84.20;;;;;;9174882;19;20010;-73
2024/01/28 08:40:19;;;;;;;9.02;4.47;;;1.20;84.30;;;;;;9175557;19;20018;-73
2024/01/28 08:43:24;;;;;;;13.20;4.20;;;1.20;84.10;;;;;;9173036;19;20099;-74
2024/01/28 08:46:32;;;;;;;17.30;4.38;;;1.30;84.30;;;;;;9171231;19;20011;-73
2024/01/28 08:49:37;;;;;;;11.43;4.15;;;1.30;84.30;;;;;;9175801;19;20110;-73
2024/01/28 08:52:45;;;;;;;10.13;4.15;;;1.30;84.50;;;;;;9172935;19;20598;-74
2024/01/28 08:55:54;;;;;;;18.30;4.22;;;1.40;84.40;;;;;;9175434;19;20030;-74
2024/01/28 08:59:01;;;;;;;12.32;3.92;;;1.40;84.20;;;;;;9176037;19;20015;-74
2024/01/28 09:02:07;;;;;;;8.80;3.90;;;1.40;84.50;;;;;;9172753;19;20086;-74
2024/01/28 09:05:14;;;;;;;16.30;4.30;;;1.50;84.50;;;;;;9177584;19;20766;-74
2024/01/28 09:08:20;;;;;;;15.70;4.43;;;1.60;84.50;;;;;;9173261;19;20019;-74
2024/01/28 09:11:31;;;;;;;13.65;4.28;;;1.60;84.50;;;;;;9175760;19;20018;-74
2024/01/28 09:14:36;;;;;;;17.50;4.28;;;1.70;84.70;;;;;;9176562;19;20014;-74
2024/01/28 09:17:44;;;;;;;14.75;3.90;;;1.70;84.70;;;;;;9174530;19;20376;-74
2024/01/28 09:20:51;;;;;;;14.85;3.95;;;1.80;84.60;;;;;;9173585;19;20051;-73
2024/01/28 09:23:58;;;;;;;6.85;3.30;;;1.90;84.70;;;;;;9172685;19;20017;-74
2024/01/28 09:27:07;;;;;;;7.72;3.50;;;2.00;84.70;;;;;;9174620;19;20006;-74
2024/01/28 09:30:15;;;;;;;10.25;3.70;;;2.10;84.70;;;;;;9172623;19;20017;-74
2024/01/28 09:33:20;;;;;;;11.32;3.42;;;2.20;84.80;;;;;;9170965;19;20369;-73
2024/01/28 09:36:28;;;;;;;8.10;3.38;;;2.20;84.80;;;;;;9174207;19;20019;-73
2024/01/28 09:39:33;;;;;;;10.45;3.33;;;2.30;84.60;;;;;;9171510;19;20014;-74
2024/01/28 09:42:50;;;;;;;9.30;2.95;;;2.40;84.60;;;;;;9172186;19;20030;-74
2024/01/28 09:45:56;;;;;;;7.15;3.50;;;2.50;84.70;;;;;;9172218;19;20022;-74
2024/01/28 09:49:05;;;;;;;8.18;3.38;;;2.50;84.70;;;;;;9174847;19;20010;-74
2024/01/28 09:52:13;;;;;;;7.78;3.83;;;2.60;84.70;;;;;;9174419;19;20015;-74
2024/01/28 09:55:20;;;;;;;8.45;3.30;;;2.80;84.70;;;;;;9172554;19;20107;-74
2024/01/28 09:58:28;;;;;;;9.30;3.17;;;2.80;84.80;;;;;;9172009;19;20019;-74
2024/01/28 10:01:36;;;;;;;14.82;3.00;;;2.90;84.80;;;;;;9173742;19;20025;-75
2024/01/28 10:04:42;;;;;;;6.68;3.15;;;3.10;84.90;;;;;;9174808;19;20011;-75
2024/01/28 10:07:51;;;;;;;14.30;3.83;;;3.20;85.50;;;;;;9172939;19;20026;-76
2024/01/28 10:10:56;;;;;;;10.40;2.70;;;3.40;85.10;;;;;;9174362;19;20511;-75
2024/01/28 10:14:07;;;;;;;10.93;2.78;;;3.50;85.10;;;;;;9173703;19;20019;-76
2024/01/28 10:17:16;;;;;;;11.25;2.78;;;3.90;85.40;;;;;;9172042;19;20019;-76
2024/01/28 10:20:28;;;;;;;12.10;2.80;;;3.90;85.10;;;;;;9172455;19;20026;-76
2024/01/28 10:23:40;;;;;;;12.45;3.03;;;4.10;85.00;;;;;;9167225;19;20014;-76
2024/01/28 10:26:48;;;;;;;9.15;3.33;;;4.30;85.20;;;;;;9172733;19;20014;-76
2024/01/28 10:29:56;;;;;;;5.60;2.60;;;4.60;85.10;;;;;;9174176;19;20022;-76
2024/01/28 10:33:04;;;;;;;9.23;3.30;;;4.80;84.80;;;;;;9168245;19;20022;-76
2024/01/28 10:36:12;;;;;;;8.13;3.08;;;5.10;85.00;;;;;;9173732;19;20015;-76
2024/01/28 10:39:22;;;;;;;8.55;2.33;;;5.40;84.90;;;;;;9170545;19;20018;-76
2024/01/28 10:42:29;;;;;;;9.82;2.47;;;5.60;84.70;;;;;;9172553;19;20044;-75
2024/01/28 10:45:43;;;;;;;8.25;2.47;;;5.80;84.70;;;;;;9174371;19;20383;-75
2024/01/28 10:48:53;;;;;;;9.20;2.20;;;6.00;84.40;;;;;;9173357;19;20014;-75
2024/01/28 10:52:01;;;;;;;5.40;2.08;;;6.10;84.20;;;;;;9171396;19;20476;-74
2024/01/28 10:55:08;;;;;;;7.63;2.42;;;6.30;84.20;;;;;;9169557;19;20011;-74
2024/01/28 10:58:16;;;;;;;4.15;1.90;;;6.40;83.80;;;;;;9172452;19;20021;-75
2024/01/28 11:01:25;;;;;;;9.23;1.90;;;6.60;83.70;;;;;;9169825;19;20594;-74
2024/01/28 11:04:35;;;;;;;7.57;1.85;;;6.70;83.50;;;;;;9161130;19;20006;-75
2024/01/28 11:07:42;;;;;;;6.07;1.75;;;6.90;83.50;;;;;;9168605;19;20022;-74
2024/01/28 11:10:52;;;;;;;9.10;1.80;;;7.00;83.40;;;;;;9178886;19;20025;-74
2024/01/28 11:13:58;;;;;;;5.63;1.73;;;7.10;83.50;;;;;;9180480;19;20022;-74
2024/01/28 11:17:12;;;;;;;4.45;2.47;;;7.20;83.10;;;;;;9172789;19;20022;-74
2024/01/28 11:20:27;;;;;;;5.25;1.48;;;7.40;82.60;;;;;;9177985;19;20022;-73
2024/01/28 11:23:44;;;;;;;4.93;1.42;;;7.50;82.40;;;;;;9174204;19;20019;-74
2024/01/28 11:26:50;;;;;;;3.92;1.63;;;7.60;82.30;;;;;;9168957;19;20022;-73
2024/01/28 11:29:59;;;;;;;8.65;1.92;;;7.70;82.00;;;;;;9173919;19;20022;-74
2024/01/28 11:33:15;;;;;;;6.32;1.63;;;7.80;82.20;;;;;;9171046;19;20024;-74
2024/01/28 11:36:29;;;;;;;5.63;1.80;;;7.90;81.70;;;;;;9175608;19;20018;-73
2024/01/28 11:39:40;;;;;;;3.22;1.85;;;8.10;81.80;;;;;;9175800;19;20015;-74
2024/01/28 11:42:48;;;;;;;5.00;1.73;;;8.10;81.50;;;;;;9175453;19;20059;-74
2024/01/28 11:45:55;;;;;;;6.03;1.67;;;8.20;81.60;;;;;;9177685;19;20022;-73
2024/01/28 11:49:06;;;;;;;3.47;1.50;;;8.40;81.70;;;;;;9177053;19;20014;-74
2024/01/28 11:52:12;;;;;;;3.55;1.92;;;8.40;81.40;;;;;;9176158;19;20476;-74
2024/01/28 11:55:20;;;;;;;5.15;2.03;;;8.50;81.20;;;;;;9176171;19;20018;-74
2024/01/28 11:58:26;;;;;;;3.75;1.58;;;8.50;80.80;;;;;;9178530;19;20081;-73
2024/01/28 12:01:34;;;;;;;2.92;1.48;;;8.60;80.40;;;;;;9174535;19;20022;-74
2024/01/28 12:04:44;;;;;;;4.60;1.60;;;8.70;80.10;;;;;;9173146;19;20032;-73
2024/01/28 12:07:53;;;;;;;7.32;1.77;;;8.80;79.90;;;;;;9176339;19;20019;-74
2024/01/28 12:11:00;;;;;;;5.88;1.67;;;8.90;79.90;;;;;;9175829;19;20011;-73
2024/01/28 12:14:10;;;;;;;4.15;1.80;;;8.80;79.90;;;;;;9177352;19;20022;-73
2024/01/28 12:17:16;;;;;;;6.30;1.75;;;8.80;79.80;;;;;;9178251;19;20022;-74
2024/01/28 12:20:26;;;;;;;7.97;1.70;;;8.90;79.70;;;;;;9179794;19;20018;-74
2024/01/28 12:23:33;;;;;;;6.25;1.55;;;8.90;79.90;;;;;;9176902;19;20338;-73
2024/01/28 12:26:43;;;;;;;8.55;1.98;;;8.90;79.40;;;;;;9176634;19;20492;-73
2024/01/28 12:29:49;;;;;;;8.55;2.28;;;9.00;79.40;;;;;;9175269;19;20487;-73
2024/01/28 12:32:57;;;;;;;6.18;1.40;;;9.00;79.40;;;;;;9172843;19;20022;-73
2024/01/28 12:36:06;;;;;;;2.80;1.40;;;8.90;78.80;;;;;;9177824;19;20673;-75
2024/01/28 12:39:14;;;;;;;6.35;1.55;;;9.00;78.70;;;;;;9176756;19;20014;-73
2024/01/28 12:42:20;;;;;;;5.50;1.40;;;9.00;79.00;;;;;;9177243;19;20047;-74
2024/01/28 12:45:28;;;;;;;6.13;2.10;;;9.00;78.60;;;;;;9173346;19;20377;-74
2024/01/28 12:48:33;;;;;;;4.50;1.65;;;9.00;78.70;;;;;;9174273;19;20011;-74
2024/01/28 12:51:43;;;;;;;6.50;1.90;;;9.00;78.50;;;;;;9178332;19;20043;-74
2024/01/28 12:54:49;;;;;;;4.63;1.40;;;9.00;78.50;;;;;;9177856;19;20077;-74
2024/01/28 12:57:57;;;;;;;3.55;1.50;;;9.00;78.30;;;;;;9177153;19;20014;-74
2024/01/28 13:01:04;;;;;;;5.07;1.77;;;9.10;78.70;;;;;;9176957;19;20022;-74
2024/01/28 13:04:13;;;;;;;5.93;1.77;;;9.10;78.20;;;;;;9175021;19;20022;-74
2024/01/28 13:07:22;;;;;;;7.50;1.60;;;9.10;78.20;;;;;;9176437;19;20226;-74
2024/01/28 13:10:29;;;;;;;5.97;1.90;;;9.10;78.00;;;;;;9174465;19;20014;-73
2024/01/28 13:13:36;;;;;;;3.50;1.80;;;9.10;77.80;;;;;;9175488;19;20021;-73
2024/01/28 13:16:46;;;;;;;4.72;1.77;;;9.10;77.60;;;;;;9175296;19;20019;-74
2024/01/28 13:19:53;;;;;;;6.22;1.83;;;9.20;77.40;;;;;;9175473;19;20361;-73
2024/01/28 13:23:04;;;;;;;8.05;1.63;;;9.20;77.50;;;;;;9177297;19;20507;-73
2024/01/28 13:26:10;;;;;;;3.08;1.67;;;9.20;77.60;;;;;;9174384;19;20014;-74
2024/01/28 13:29:18;;;;;;;5.15;1.63;;;9.20;77.50;;;;;;9174662;19;20018;-73
2024/01/28 13:32:24;;;;;;;2.88;1.60;;;9.30;77.30;;;;;;9168945;19;20709;-74
2024/01/28 13:35:32;;;;;;;7.65;1.90;;;9.30;77.40;;;;;;9176286;19;20010;-74
2024/01/28 13:38:42;;;;;;;4.82;1.60;;;9.40;77.90;;;;;;9174006;19;20364;-74
2024/01/28 13:41:49;;;;;;;5.43;1.75;;;9.30;76.90;;;;;;9174277;19;20013;-73
2024/01/28 13:44:55;;;;;;;7.88;2.28;;;9.40;76.90;;;;;;9175017;19;20040;-73
2024/01/28 13:48:02;;;;;;;6.18;1.52;;;9.30;76.90;;;;;;9173695;19;20022;-73
2024/01/28 13:51:08;;;;;;;3.30;1.98;;;9.40;76.90;;;;;;9175566;19;20021;-74
2024/01/28 13:54:18;;;;;;;5.32;1.88;;;9.40;76.80;;;;;;9175499;19;20018;-73
2024/01/28 13:57:24;;;;;;;5.00;1.83;;;9.40;76.60;;;;;;9175924;19;20039;-74
2024/01/28 14:00:31;;;;;;;6.85;2.00;;;9.40;76.70;;;;;;9175630;19;20015;-74
2024/01/28 14:03:37;;;;;;;4.00;1.75;;;9.40;76.40;;;;;;9175451;19;20898;-73
2024/01/28 14:06:45;;;;;;;5.72;2.03;;;9.40;76.40;;;;;;9175433;19;20029;-74
2024/01/28 14:09:53;;;;;;;7.57;1.70;;;9.50;76.70;;;;;;9175219;19;20029;-74
2024/01/28 14:13:01;;;;;;;6.15;1.60;;;9.60;76.50;;;;;;9175809;19;20014;-76
2024/01/28 14:16:08;;;;;;;8.10;2.17;;;9.60;76.70;;;;;;9177130;19;20771;-74
2024/01/28 14:19:15;;;;;;;5.90;1.92;;;9.50;76.20;;;;;;9175869;19;20018;-74
2024/01/28 14:22:21;;;;;;;7.22;2.33;;;9.60;76.60;;;;;;9171567;19;20022;-74
2024/01/28 14:25:31;;;;;;;5.88;2.25;;;9.70;76.60;;;;;;9171000;19;20022;-75
2024/01/28 14:28:37;;;;;;;6.38;2.22;;;9.60;76.60;;;;;;9171523;19;20118;-73
2024/01/28 14:31:44;;;;;;;3.28;1.80;;;9.60;76.30;;;;;;9169430;19;20018;-74
2024/01/28 14:34:51;;;;;;;5.10;1.90;;;9.60;76.30;;;;;;9174127;19;20015;-73
2024/01/28 14:37:59;;;;;;;6.93;2.70;;;9.60;76.20;;;;;;9172681;19;20669;-74
2024/01/28 14:41:07;;;;;;;5.80;2.17;;;9.60;76.00;;;;;;9172017;19;20019;-74
2024/01/28 14:44:14;;;;;;;5.20;1.77;;;9.60;76.20;;;;;;9177886;19;20010;-73
2024/01/28 14:47:20;;;;;;;5.80;1.85;;;9.70;76.40;;;;;;9181180;19;20113;-73
2024/01/28 14:50:28;;;;;;;8.52;2.45;;;9.60;76.00;;;;;;9181361;19;20014;-73
2024/01/28 14:53:35;;;;;;;7.78;2.72;;;9.60;75.80;;;;;;9182384;19;20494;-74
2024/01/28 14:56:46;;;;;;;7.57;2.17;;;9.70;75.90;;;;;;9182742;19;20456;-73
2024/01/28 14:59:52;;;;;;;5.78;1.90;;;9.60;75.90;;;;;;9183767;19;20007;-74
2024/01/28 15:02:59;;;;;;;7.22;2.75;;;9.60;75.90;;;;;;9183203;19;20496;-74
2024/01/28 15:06:05;;;;;;;7.88;2.47;;;9.60;75.90;;;;;;9180587;19;20026;-74
2024/01/28 15:09:13;;;;;;;7.35;2.30;;;9.60;75.80;;;;;;9183152;19;20014;-74
2024/01/28 15:12:21;;;;;;;5.57;2.50;;;9.50;75.80;;;;;;9182888;19;20357;-76
2024/01/28 15:15:32;;;;;;;5.25;2.80;;;9.60;75.60;;;;;;9182169;19;20021;-74
2024/01/28 15:18:38;;;;;;;4.68;2.50;;;9.50;75.50;;;;;;9178350;19;20012;-75
2024/01/28 15:21:46;;;;;;;6.60;2.53;;;9.50;75.50;;;;;;9180928;19;20440;-74
2024/01/28 15:24:54;;;;;;;6.47;2.45;;;9.40;75.80;;;;;;9181210;19;20536;-73
2024/01/28 15:28:10;;;;;;;7.50;2.60;;;9.50;75.60;;;;;;9181793;19;20484;-74
2024/01/28 15:31:28;;;;;;;6.68;2.53;;;9.40;75.80;;;;;;9176433;19;20024;-74
2024/01/28 15:34:36;;;;;;;5.63;2.55;;;9.40;75.30;;;;;;9178446;19;20019;-73
2024/01/28 15:37:42;;;;;;;8.25;2.53;;;9.40;75.30;;;;;;9180551;19;20015;-74
2024/01/28 15:40:49;;;;;;;4.90;2.40;;;9.40;75.30;;;;;;9181603;19;20019;-74
2024/01/28 15:43:58;;;;;;;5.50;2.20;;;9.40;75.30;;;;;;9180023;19;20015;-74
2024/01/28 15:47:06;;;;;;;7.47;2.63;;;9.30;75.70;;;;;;9177360;19;20019;-73
2024/01/28 15:50:11;;;;;;;7.65;2.30;;;9.30;75.20;;;;;;9180840;19;20029;-74
2024/01/28 15:53:19;;;;;;;6.05;2.58;;;9.30;75.20;;;;;;9179747;19;20022;-74
2024/01/28 15:56:25;;;;;;;6.60;2.50;;;9.20;75.10;;;;;;9178538;19;20018;-73
2024/01/28 15:59:35;;;;;;;6.25;2.40;;;9.20;75.20;;;;;;9178485;19;20019;-73
2024/01/28 16:02:40;;;;;;;4.55;2.35;;;9.20;75.00;;;;;;9180408;19;20019;-72
2024/01/28 16:05:48;;;;;;;5.47;2.35;;;9.10;74.90;;;;;;9178354;19;20346;-74
2024/01/28 16:08:54;;;;;;;9.13;2.92;;;9.20;75.00;;;;;;9177014;19;20365;-74
2024/01/28 16:12:02;;;;;;;9.02;2.80;;;9.00;75.00;;;;;;9177437;19;20011;-73
2024/01/28 16:15:11;;;;;;;7.85;2.60;;;8.90;74.80;;;;;;9179632;19;20461;-74
2024/01/28 16:18:19;;;;;;;7.40;2.05;;;8.90;74.90;;;;;;9178169;19;20021;-74
2024/01/28 16:21:25;;;;;;;7.28;2.78;;;8.80;74.90;;;;;;9179755;19;20014;-73